Piedmont, Oklahoma
Current Conditions -  °F | °C
As of 12:53 PM on Friday 28 Nov 2014 (Local Time) from KPWA Reporting Station
Clear Clear  
Wind Chill: 63°   Ceiling: Unl
Heat Index: 63°   Visibility: 10mi
Dew Point: 38°   Wind: 17mph
Humidity: 40%   Direction: 200°SSW
Pressure: 29.96"   Gusts: 26mph
Location:  35.64°N, 97.75°W
Report Text: KPWA 281853Z 20015G23KT 10SM CLR 17/03 A2996 RMK AO2 SLP140 T01720033
Loading
Personal Weather Stations






























Interactive Weather Map New forecast layout! Learn more

10-Day Weather Forecast

Advertisements
Track Severe Weather on mobile